sensor_id;sensor_type;location;lat;lon;timestamp;pressure;altitude;pressure_sealevel;temperature;humidity
8075;BME280;4080;42.676;23.372;2023-01-25T00:01:54;96180.66;;;2.48;100.00
8075;BME280;4080;42.676;23.372;2023-01-25T00:04:21;96172.94;;;2.40;100.00
8075;BME280;4080;42.676;23.372;2023-01-25T00:06:49;96187.19;;;2.44;100.00
8075;BME280;4080;42.676;23.372;2023-01-25T00:09:16;96174.88;;;2.32;100.00
8075;BME280;4080;42.676;23.372;2023-01-25T00:11:45;96184.78;;;2.43;100.00
8075;BME280;4080;42.676;23.372;2023-01-25T00:14:13;96174.13;;;2.38;100.00
8075;BME280;4080;42.676;23.372;2023-01-25T00:16:41;96175.75;;;2.39;100.00
8075;BME280;4080;42.676;23.372;2023-01-25T00:19:08;96174.56;;;2.41;100.00
8075;BME280;4080;42.676;23.372;2023-01-25T00:21:36;96149.00;;;2.24;100.00
8075;BME280;4080;42.676;23.372;2023-01-25T00:24:03;96141.13;;;2.17;100.00
8075;BME280;4080;42.676;23.372;2023-01-25T00:26:30;96183.44;;;2.47;100.00
8075;BME280;4080;42.676;23.372;2023-01-25T00:28:59;96185.44;;;2.45;100.00
8075;BME280;4080;42.676;23.372;2023-01-25T00:31:31;96184.13;;;2.34;100.00
8075;BME280;4080;42.676;23.372;2023-01-25T00:34:06;96172.22;;;2.25;100.00
8075;BME280;4080;42.676;23.372;2023-01-25T00:36:45;96168.06;;;2.31;100.00
8075;BME280;4080;42.676;23.372;2023-01-25T00:39:14;96176.88;;;2.30;100.00
8075;BME280;4080;42.676;23.372;2023-01-25T00:41:42;96174.66;;;2.27;100.00
8075;BME280;4080;42.676;23.372;2023-01-25T00:44:10;96179.66;;;2.28;100.00
8075;BME280;4080;42.676;23.372;2023-01-25T00:46:37;96180.09;;;2.32;100.00
8075;BME280;4080;42.676;23.372;2023-01-25T00:49:04;96181.13;;;2.37;100.00
8075;BME280;4080;42.676;23.372;2023-01-25T00:51:30;96187.16;;;2.38;100.00
8075;BME280;4080;42.676;23.372;2023-01-25T00:53:57;96179.56;;;2.43;100.00
8075;BME280;4080;42.676;23.372;2023-01-25T00:56:24;96175.56;;;2.40;100.00
8075;BME280;4080;42.676;23.372;2023-01-25T00:58:50;96183.44;;;2.47;100.00
8075;BME280;4080;42.676;23.372;2023-01-25T01:01:19;96193.47;;;2.50;100.00
8075;BME280;4080;42.676;23.372;2023-01-25T01:03:45;96188.28;;;2.50;100.00
8075;BME280;4080;42.676;23.372;2023-01-25T01:06:12;96139.56;;;2.23;100.00
8075;BME280;4080;42.676;23.372;2023-01-25T01:08:39;96139.06;;;2.12;100.00
8075;BME280;4080;42.676;23.372;2023-01-25T01:11:08;96190.19;;;2.41;100.00
8075;BME280;4080;42.676;23.372;2023-01-25T01:13:37;96168.94;;;2.38;100.00
8075;BME280;4080;42.676;23.372;2023-01-25T01:16:06;96176.75;;;2.38;100.00
8075;BME280;4080;42.676;23.372;2023-01-25T01:18:39;96183.69;;;2.31;100.00
8075;BME280;4080;42.676;23.372;2023-01-25T01:21:06;96184.06;;;2.28;100.00
8075;BME280;4080;42.676;23.372;2023-01-25T01:23:34;96179.84;;;2.27;100.00
8075;BME280;4080;42.676;23.372;2023-01-25T01:26:01;96180.84;;;2.26;100.00
8075;BME280;4080;42.676;23.372;2023-01-25T01:28:29;96138.78;;;2.01;100.00
8075;BME280;4080;42.676;23.372;2023-01-25T01:30:58;96133.75;;;1.99;100.00
8075;BME280;4080;42.676;23.372;2023-01-25T01:33:25;96172.84;;;2.27;100.00
8075;BME280;4080;42.676;23.372;2023-01-25T01:35:53;96172.03;;;2.27;100.00
8075;BME280;4080;42.676;23.372;2023-01-25T01:38:20;96159.66;;;2.29;100.00
8075;BME280;4080;42.676;23.372;2023-01-25T01:40:48;96169.69;;;2.32;100.00
8075;BME280;4080;42.676;23.372;2023-01-25T01:43:17;96164.66;;;2.30;100.00
8075;BME280;4080;42.676;23.372;2023-01-25T01:45:50;96133.84;;;2.12;100.00
8075;BME280;4080;42.676;23.372;2023-01-25T01:48:20;96156.09;;;2.36;100.00
8075;BME280;4080;42.676;23.372;2023-01-25T01:50:54;96149.66;;;2.32;100.00
8075;BME280;4080;42.676;23.372;2023-01-25T01:53:23;96145.63;;;2.30;100.00
8075;BME280;4080;42.676;23.372;2023-01-25T01:55:52;96143.44;;;2.33;100.00
8075;BME280;4080;42.676;23.372;2023-01-25T01:58:21;96157.75;;;2.44;100.00
8075;BME280;4080;42.676;23.372;2023-01-25T02:00:48;96161.00;;;2.46;100.00
8075;BME280;4080;42.676;23.372;2023-01-25T02:03:15;96160.19;;;2.45;100.00
8075;BME280;4080;42.676;23.372;2023-01-25T02:05:49;96155.53;;;2.41;100.00
8075;BME280;4080;42.676;23.372;2023-01-25T02:08:20;96152.72;;;2.42;100.00
8075;BME280;4080;42.676;23.372;2023-01-25T02:10:48;96156.34;;;2.41;100.00
8075;BME280;4080;42.676;23.372;2023-01-25T02:13:16;96159.75;;;2.42;100.00
8075;BME280;4080;42.676;23.372;2023-01-25T02:15:45;96166.56;;;2.43;100.00
8075;BME280;4080;42.676;23.372;2023-01-25T02:18:13;96159.56;;;2.43;100.00
8075;BME280;4080;42.676;23.372;2023-01-25T02:20:42;96151.56;;;2.45;100.00
8075;BME280;4080;42.676;23.372;2023-01-25T02:23:17;96157.03;;;2.50;100.00
8075;BME280;4080;42.676;23.372;2023-01-25T02:25:48;96157.03;;;2.50;100.00
8075;BME280;4080;42.676;23.372;2023-01-25T02:28:18;96161.44;;;2.49;100.00
8075;BME280;4080;42.676;23.372;2023-01-25T02:30:47;96158.63;;;2.51;100.00
8075;BME280;4080;42.676;23.372;2023-01-25T02:33:14;96159.63;;;2.50;100.00
8075;BME280;4080;42.676;23.372;2023-01-25T02:35:42;96150.31;;;2.41;100.00
8075;BME280;4080;42.676;23.372;2023-01-25T02:38:12;96150.59;;;2.46;100.00
8075;BME280;4080;42.676;23.372;2023-01-25T02:40:43;96148.53;;;2.41;100.00
8075;BME280;4080;42.676;23.372;2023-01-25T02:43:13;96141.09;;;2.38;100.00
8075;BME280;4080;42.676;23.372;2023-01-25T02:45:40;96154.78;;;2.47;100.00
8075;BME280;4080;42.676;23.372;2023-01-25T02:48:09;96153.34;;;2.44;100.00
8075;BME280;4080;42.676;23.372;2023-01-25T02:50:36;96135.06;;;2.38;100.00
8075;BME280;4080;42.676;23.372;2023-01-25T02:53:02;96145.88;;;2.35;100.00
8075;BME280;4080;42.676;23.372;2023-01-25T02:55:29;96145.78;;;2.22;100.00
8075;BME280;4080;42.676;23.372;2023-01-25T02:57:56;96151.97;;;2.21;100.00
8075;BME280;4080;42.676;23.372;2023-01-25T03:00:24;96142.97;;;2.23;100.00
8075;BME280;4080;42.676;23.372;2023-01-25T03:02:50;96148.44;;;2.28;100.00
8075;BME280;4080;42.676;23.372;2023-01-25T03:05:17;96149.41;;;2.27;100.00
8075;BME280;4080;42.676;23.372;2023-01-25T03:07:44;96150.66;;;2.31;100.00
8075;BME280;4080;42.676;23.372;2023-01-25T03:10:10;96113.41;;;2.09;100.00
8075;BME280;4080;42.676;23.372;2023-01-25T03:12:37;96157.31;;;2.40;100.00
8075;BME280;4080;42.676;23.372;2023-01-25T03:15:05;96155.44;;;2.28;100.00
8075;BME280;4080;42.676;23.372;2023-01-25T03:17:33;96155.00;;;2.24;100.00
8075;BME280;4080;42.676;23.372;2023-01-25T03:20:00;96152.59;;;2.23;100.00
8075;BME280;4080;42.676;23.372;2023-01-25T03:22:27;96155.25;;;2.29;100.00
8075;BME280;4080;42.676;23.372;2023-01-25T03:24:54;96155.06;;;2.31;100.00
8075;BME280;4080;42.676;23.372;2023-01-25T03:27:21;96149.66;;;2.32;100.00
8075;BME280;4080;42.676;23.372;2023-01-25T03:29:48;96148.84;;;2.32;100.00
8075;BME280;4080;42.676;23.372;2023-01-25T03:32:15;96147.16;;;2.17;100.00
8075;BME280;4080;42.676;23.372;2023-01-25T03:34:43;96153.59;;;2.22;100.00
8075;BME280;4080;42.676;23.372;2023-01-25T03:37:09;96152.22;;;2.26;100.00
8075;BME280;4080;42.676;23.372;2023-01-25T03:39:36;96151.47;;;2.32;100.00
8075;BME280;4080;42.676;23.372;2023-01-25T03:42:03;96148.09;;;2.38;100.00
8075;BME280;4080;42.676;23.372;2023-01-25T03:44:30;96149.31;;;2.42;100.00
8075;BME280;4080;42.676;23.372;2023-01-25T03:46:57;96149.59;;;2.47;100.00
8075;BME280;4080;42.676;23.372;2023-01-25T03:49:23;96150.31;;;2.41;100.00
8075;BME280;4080;42.676;23.372;2023-01-25T03:51:51;96143.25;;;2.35;100.00
8075;BME280;4080;42.676;23.372;2023-01-25T03:54:18;96147.25;;;2.31;100.00
8075;BME280;4080;42.676;23.372;2023-01-25T03:56:45;96128.97;;;2.24;100.00
8075;BME280;4080;42.676;23.372;2023-01-25T03:59:12;96143.25;;;2.35;100.00
8075;BME280;4080;42.676;23.372;2023-01-25T04:01:38;96142.88;;;2.38;100.00
8075;BME280;4080;42.676;23.372;2023-01-25T04:04:05;96142.50;;;2.41;100.00
8075;BME280;4080;42.676;23.372;2023-01-25T04:06:32;96140.91;;;2.40;100.00
8075;BME280;4080;42.676;23.372;2023-01-25T04:09:00;96140.50;;;2.43;100.00
8075;BME280;4080;42.676;23.372;2023-01-25T04:11:27;96142.31;;;2.42;100.00
8075;BME280;4080;42.676;23.372;2023-01-25T04:13:53;96137.81;;;2.30;100.00
8075;BME280;4080;42.676;23.372;2023-01-25T04:16:20;96134.59;;;2.28;100.00
8075;BME280;4080;42.676;23.372;2023-01-25T04:18:47;96097.69;;;1.96;100.00
8075;BME280;4080;42.676;23.372;2023-01-25T04:21:13;96129.97;;;2.23;100.00
8075;BME280;4080;42.676;23.372;2023-01-25T04:23:40;96129.53;;;2.20;100.00
8075;BME280;4080;42.676;23.372;2023-01-25T04:26:14;96134.56;;;2.21;100.00
8075;BME280;4080;42.676;23.372;2023-01-25T04:28:41;96130.91;;;2.15;100.00
8075;BME280;4080;42.676;23.372;2023-01-25T04:31:08;96135.75;;;2.18;100.00
8075;BME280;4080;42.676;23.372;2023-01-25T04:33:35;96134.50;;;2.14;100.00
8075;BME280;4080;42.676;23.372;2023-01-25T04:36:03;96141.47;;;2.14;100.00
8075;BME280;4080;42.676;23.372;2023-01-25T04:38:30;96145.06;;;2.13;100.00
8075;BME280;4080;42.676;23.372;2023-01-25T04:40:56;96149.75;;;2.17;100.00
8075;BME280;4080;42.676;23.372;2023-01-25T04:43:24;96148.75;;;2.18;100.00
8075;BME280;4080;42.676;23.372;2023-01-25T04:45:51;96146.69;;;2.14;100.00
8075;BME280;4080;42.676;23.372;2023-01-25T04:48:18;96152.06;;;2.12;100.00
8075;BME280;4080;42.676;23.372;2023-01-25T04:50:45;96143.84;;;2.09;100.00
8075;BME280;4080;42.676;23.372;2023-01-25T04:53:12;96149.03;;;2.09;100.00
8075;BME280;4080;42.676;23.372;2023-01-25T04:55:39;96144.66;;;2.09;100.00
8075;BME280;4080;42.676;23.372;2023-01-25T04:58:05;96151.28;;;2.12;100.00
8075;BME280;4080;42.676;23.372;2023-01-25T05:00:33;96148.66;;;2.12;100.00
8075;BME280;4080;42.676;23.372;2023-01-25T05:03:01;96145.63;;;2.08;100.00
8075;BME280;4080;42.676;23.372;2023-01-25T05:05:28;96151.09;;;2.13;100.00
8075;BME280;4080;42.676;23.372;2023-01-25T05:07:54;96150.28;;;2.13;100.00
8075;BME280;4080;42.676;23.372;2023-01-25T05:10:21;96144.22;;;2.06;100.00
8075;BME280;4080;42.676;23.372;2023-01-25T05:12:48;96135.38;;;2.00;100.00
8075;BME280;4080;42.676;23.372;2023-01-25T05:15:15;96138.78;;;2.01;100.00
8075;BME280;4080;42.676;23.372;2023-01-25T05:17:43;96138.59;;;2.02;100.00
8075;BME280;4080;42.676;23.372;2023-01-25T05:20:11;96139.38;;;2.03;100.00
8075;BME280;4080;42.676;23.372;2023-01-25T05:22:38;96138.19;;;2.05;100.00
8075;BME280;4080;42.676;23.372;2023-01-25T05:25:05;96131.38;;;2.04;100.00
8075;BME280;4080;42.676;23.372;2023-01-25T05:27:52;96131.72;;;1.95;100.00
8075;BME280;4080;42.676;23.372;2023-01-25T05:30:18;96137.78;;;2.02;100.00
8075;BME280;4080;42.676;23.372;2023-01-25T05:32:47;96136.97;;;2.01;100.00
8075;BME280;4080;42.676;23.372;2023-01-25T05:35:14;96140.56;;;2.00;100.00
8075;BME280;4080;42.676;23.372;2023-01-25T05:37:40;96145.16;;;1.98;100.00
8075;BME280;4080;42.676;23.372;2023-01-25T05:40:08;96091.19;;;1.64;100.00
8075;BME280;4080;42.676;23.372;2023-01-25T05:42:35;96113.88;;;1.70;100.00
8075;BME280;4080;42.676;23.372;2023-01-25T05:45:02;96135.63;;;1.84;100.00
8075;BME280;4080;42.676;23.372;2023-01-25T05:47:29;96143.25;;;1.85;100.00
8075;BME280;4080;42.676;23.372;2023-01-25T05:49:57;96153.09;;;1.90;100.00
8075;BME280;4080;42.676;23.372;2023-01-25T05:52:24;96148.69;;;1.91;100.00
8075;BME280;4080;42.676;23.372;2023-01-25T05:54:51;96138.22;;;1.84;100.00
8075;BME280;4080;42.676;23.372;2023-01-25T05:57:18;96146.38;;;2.02;100.00
8075;BME280;4080;42.676;23.372;2023-01-25T05:59:44;96152.22;;;2.04;100.00
8075;BME280;4080;42.676;23.372;2023-01-25T06:02:11;96158.03;;;2.06;100.00
8075;BME280;4080;42.676;23.372;2023-01-25T06:04:38;96152.22;;;2.04;100.00
8075;BME280;4080;42.676;23.372;2023-01-25T06:07:06;96153.00;;;2.05;100.00
8075;BME280;4080;42.676;23.372;2023-01-25T06:09:33;96150.22;;;2.06;100.00
8075;BME280;4080;42.676;23.372;2023-01-25T06:12:00;96149.97;;;2.01;100.00
8075;BME280;4080;42.676;23.372;2023-01-25T06:14:28;96150.97;;;2.00;100.00
8075;BME280;4080;42.676;23.372;2023-01-25T06:16:55;96134.88;;;1.90;100.00
8075;BME280;4080;42.676;23.372;2023-01-25T06:19:21;96149.38;;;1.99;100.00
8075;BME280;4080;42.676;23.372;2023-01-25T06:21:49;96158.66;;;2.08;100.00
8075;BME280;4080;42.676;23.372;2023-01-25T06:24:17;96151.72;;;2.15;100.00
8075;BME280;4080;42.676;23.372;2023-01-25T06:26:44;96140.66;;;2.13;100.00
8075;BME280;4080;42.676;23.372;2023-01-25T06:29:11;96133.06;;;2.12;100.00
8075;BME280;4080;42.676;23.372;2023-01-25T06:31:38;96162.44;;;2.27;100.00
8075;BME280;4080;42.676;23.372;2023-01-25T06:34:05;96160.63;;;2.28;100.00
8075;BME280;4080;42.676;23.372;2023-01-25T06:36:33;96145.59;;;2.23;100.00
8075;BME280;4080;42.676;23.372;2023-01-25T06:39:00;96158.47;;;2.31;100.00
8075;BME280;4080;42.676;23.372;2023-01-25T06:41:28;96152.81;;;2.28;100.00
8075;BME280;4080;42.676;23.372;2023-01-25T06:43:55;96144.91;;;2.14;100.00
8075;BME280;4080;42.676;23.372;2023-01-25T06:46:22;96131.00;;;2.07;100.00
8075;BME280;4080;42.676;23.372;2023-01-25T06:48:48;96154.38;;;2.22;100.00
8075;BME280;4080;42.676;23.372;2023-01-25T06:51:15;96156.81;;;2.24;100.00
8075;BME280;4080;42.676;23.372;2023-01-25T06:53:43;96152.78;;;2.21;100.00
8075;BME280;4080;42.676;23.372;2023-01-25T06:56:12;96153.97;;;2.18;100.00
8075;BME280;4080;42.676;23.372;2023-01-25T06:58:41;96161.56;;;2.20;100.00
8075;BME280;4080;42.676;23.372;2023-01-25T07:01:12;96148.25;;;2.08;100.00
8075;BME280;4080;42.676;23.372;2023-01-25T07:03:39;96151.88;;;2.14;100.00
8075;BME280;4080;42.676;23.372;2023-01-25T07:06:08;96154.16;;;2.17;100.00
8075;BME280;4080;42.676;23.372;2023-01-25T07:08:35;96152.44;;;2.09;100.00
8075;BME280;4080;42.676;23.372;2023-01-25T07:11:04;96146.06;;;2.12;100.00
8075;BME280;4080;42.676;23.372;2023-01-25T07:13:32;96123.09;;;1.94;100.00
8075;BME280;4080;42.676;23.372;2023-01-25T07:16:03;96126.69;;;1.93;100.00
8075;BME280;4080;42.676;23.372;2023-01-25T07:18:30;96135.75;;;1.97;100.00
8075;BME280;4080;42.676;23.372;2023-01-25T07:21:02;96145.16;;;1.98;100.00
8075;BME280;4080;42.676;23.372;2023-01-25T07:23:30;96146.75;;;1.99;100.00
8075;BME280;4080;42.676;23.372;2023-01-25T07:25:58;96114.97;;;1.82;100.00
8075;BME280;4080;42.676;23.372;2023-01-25T07:28:25;96153.81;;;2.05;100.00
8075;BME280;4080;42.676;23.372;2023-01-25T07:30:52;96160.41;;;2.01;100.00
8075;BME280;4080;42.676;23.372;2023-01-25T07:33:20;96149.97;;;2.01;100.00
8075;BME280;4080;42.676;23.372;2023-01-25T07:35:47;96166.78;;;2.20;100.00
8075;BME280;4080;42.676;23.372;2023-01-25T07:38:15;96165.00;;;2.21;100.00
8075;BME280;4080;42.676;23.372;2023-01-25T07:40:42;96173.22;;;2.24;100.00
8075;BME280;4080;42.676;23.372;2023-01-25T07:43:09;96169.38;;;2.20;100.00
8075;BME280;4080;42.676;23.372;2023-01-25T07:45:36;96165.75;;;2.14;100.00
8075;BME280;4080;42.676;23.372;2023-01-25T07:48:07;96171.00;;;2.21;100.00
8075;BME280;4080;42.676;23.372;2023-01-25T07:50:36;96113.25;;;1.90;100.00
8075;BME280;4080;42.676;23.372;2023-01-25T07:53:04;96174.03;;;2.25;100.00
8075;BME280;4080;42.676;23.372;2023-01-25T07:55:30;96170.00;;;2.22;100.00
8075;BME280;4080;42.676;23.372;2023-01-25T07:57:57;96171.25;;;2.26;100.00
8075;BME280;4080;42.676;23.372;2023-01-25T08:00:24;96173.03;;;2.26;100.00
8075;BME280;4080;42.676;23.372;2023-01-25T08:02:51;96150.97;;;2.22;100.00
8075;BME280;4080;42.676;23.372;2023-01-25T08:05:18;96125.81;;;2.07;100.00
8075;BME280;4080;42.676;23.372;2023-01-25T08:07:47;96169.69;;;2.32;100.00
8075;BME280;4080;42.676;23.372;2023-01-25T08:10:14;96141.19;;;2.24;100.00
8075;BME280;4080;42.676;23.372;2023-01-25T08:12:43;96160.50;;;2.36;100.00
8075;BME280;4080;42.676;23.372;2023-01-25T08:15:11;96151.34;;;2.18;100.00
8075;BME280;4080;42.676;23.372;2023-01-25T08:17:38;96161.06;;;2.31;100.00
8075;BME280;4080;42.676;23.372;2023-01-25T08:20:06;96177.50;;;2.32;100.00
8075;BME280;4080;42.676;23.372;2023-01-25T08:22:33;96160.69;;;2.34;100.00
8075;BME280;4080;42.676;23.372;2023-01-25T08:25:01;96163.34;;;2.41;100.00
8075;BME280;4080;42.676;23.372;2023-01-25T08:27:28;96161.16;;;2.44;100.00
8075;BME280;4080;42.676;23.372;2023-01-25T08:29:54;96159.38;;;2.45;100.00
8075;BME280;4080;42.676;23.372;2023-01-25T08:32:21;96149.94;;;2.44;100.00
8075;BME280;4080;42.676;23.372;2023-01-25T08:34:48;96158.88;;;2.56;100.00
8075;BME280;4080;42.676;23.372;2023-01-25T08:37:14;96142.78;;;2.46;100.00
8075;BME280;4080;42.676;23.372;2023-01-25T08:39:41;96168.06;;;2.52;100.00
8075;BME280;4080;42.676;23.372;2023-01-25T08:42:09;96128.34;;;2.22;100.00
8075;BME280;4080;42.676;23.372;2023-01-25T08:44:36;96161.16;;;2.44;100.00
8075;BME280;4080;42.676;23.372;2023-01-25T08:47:03;96153.72;;;2.41;100.00
8075;BME280;4080;42.676;23.372;2023-01-25T08:49:30;96148.09;;;2.38;100.00
8075;BME280;4080;42.676;23.372;2023-01-25T08:51:58;96154.59;;;2.48;100.00
8075;BME280;4080;42.676;23.372;2023-01-25T08:54:25;96150.59;;;2.46;100.00
8075;BME280;4080;42.676;23.372;2023-01-25T08:56:52;96154.91;;;2.39;100.00
8075;BME280;4080;42.676;23.372;2023-01-25T08:59:20;96158.50;;;2.38;100.00
8075;BME280;4080;42.676;23.372;2023-01-25T09:01:47;96156.09;;;2.36;100.00
8075;BME280;4080;42.676;23.372;2023-01-25T09:04:13;96161.13;;;2.38;100.00
8075;BME280;4080;42.676;23.372;2023-01-25T09:06:40;96162.16;;;2.43;100.00
8075;BME280;4080;42.676;23.372;2023-01-25T09:09:07;96137.63;;;2.31;100.00
8075;BME280;4080;42.676;23.372;2023-01-25T09:11:34;96154.91;;;2.39;100.00
8075;BME280;4080;42.676;23.372;2023-01-25T09:14:02;96154.91;;;2.39;100.00
8075;BME280;4080;42.676;23.372;2023-01-25T09:16:31;96144.31;;;2.40;100.00
8075;BME280;4080;42.676;23.372;2023-01-25T09:19:00;96140.09;;;2.39;100.00
8075;BME280;4080;42.676;23.372;2023-01-25T09:21:28;96133.09;;;2.40;100.00
8075;BME280;4080;42.676;23.372;2023-01-25T09:23:55;96139.38;;;2.45;100.00
8075;BME280;4080;42.676;23.372;2023-01-25T09:26:21;96139.38;;;2.45;100.00
8075;BME280;4080;42.676;23.372;2023-01-25T09:28:50;96133.69;;;2.42;100.00
8075;BME280;4080;42.676;23.372;2023-01-25T09:31:18;96093.09;;;2.20;100.00
8075;BME280;4080;42.676;23.372;2023-01-25T09:33:46;96122.34;;;2.49;100.00
8075;BME280;4080;42.676;23.372;2023-01-25T09:36:13;96065.06;;;2.22;100.00
8075;BME280;4080;42.676;23.372;2023-01-25T09:38:40;96118.19;;;2.55;100.00
8075;BME280;4080;42.676;23.372;2023-01-25T09:41:17;96090.03;;;2.44;100.00
8075;BME280;4080;42.676;23.372;2023-01-25T09:44:03;96110.78;;;2.59;100.00
8075;BME280;4080;42.676;23.372;2023-01-25T09:46:39;96090.56;;;2.61;100.00
8075;BME280;4080;42.676;23.372;2023-01-25T09:49:20;96100.72;;;2.84;100.00
8075;BME280;4080;42.676;23.372;2023-01-25T09:52:02;96102.38;;;2.98;100.00
8075;BME280;4080;42.676;23.372;2023-01-25T09:54:36;96092.03;;;3.11;100.00
8075;BME280;4080;42.676;23.372;2023-01-25T09:57:08;96090.84;;;3.14;100.00
8075;BME280;4080;42.676;23.372;2023-01-25T09:59:40;96097.28;;;3.98;100.00
8075;BME280;4080;42.676;23.372;2023-01-25T10:02:18;96088.66;;;4.04;100.00
8075;BME280;4080;42.676;23.372;2023-01-25T10:04:53;96080.78;;;3.85;100.00
8075;BME280;4080;42.676;23.372;2023-01-25T10:07:26;96055.47;;;3.59;100.00
8075;BME280;4080;42.676;23.372;2023-01-25T10:10:00;96078.97;;;3.72;100.00
8075;BME280;4080;42.676;23.372;2023-01-25T10:12:35;96085.41;;;3.69;100.00
8075;BME280;4080;42.676;23.372;2023-01-25T10:15:11;96050.03;;;3.40;100.00
8075;BME280;4080;42.676;23.372;2023-01-25T10:17:42;96064.91;;;3.60;100.00
8075;BME280;4080;42.676;23.372;2023-01-25T10:20:21;96062.06;;;3.55;100.00
8075;BME280;4080;42.676;23.372;2023-01-25T10:22:56;96059.66;;;3.60;100.00
8075;BME280;4080;42.676;23.372;2023-01-25T10:25:32;96055.06;;;3.49;100.00
8075;BME280;4080;42.676;23.372;2023-01-25T10:28:13;96066.09;;;3.51;100.00
8075;BME280;4080;42.676;23.372;2023-01-25T10:30:47;96043.41;;;3.51;100.00
8075;BME280;4080;42.676;23.372;2023-01-25T10:33:17;96055.84;;;3.49;100.00
8075;BME280;4080;42.676;23.372;2023-01-25T10:35:47;96046.81;;;3.52;100.00
8075;BME280;4080;42.676;23.372;2023-01-25T10:38:18;95994.59;;;3.32;100.00
8075;BME280;4080;42.676;23.372;2023-01-25T10:40:51;96011.69;;;3.41;100.00
8075;BME280;4080;42.676;23.372;2023-01-25T10:43:21;96035.19;;;3.61;100.00
8075;BME280;4080;42.676;23.372;2023-01-25T10:45:48;96043.25;;;3.72;100.00
8075;BME280;4080;42.676;23.372;2023-01-25T10:48:18;96039.25;;;3.70;100.00
8075;BME280;4080;42.676;23.372;2023-01-25T10:50:51;96029.00;;;3.75;100.00
8075;BME280;4080;42.676;23.372;2023-01-25T10:53:25;96032.00;;;3.72;100.00
8075;BME280;4080;42.676;23.372;2023-01-25T10:55:57;95998.66;;;3.54;100.00
8075;BME280;4080;42.676;23.372;2023-01-25T10:58:33;96019.16;;;3.70;100.00
8075;BME280;4080;42.676;23.372;2023-01-25T11:01:01;96010.72;;;3.62;100.00
8075;BME280;4080;42.676;23.372;2023-01-25T11:03:36;96012.34;;;3.69;100.00
8075;BME280;4080;42.676;23.372;2023-01-25T11:06:06;95962.34;;;3.39;100.00
8075;BME280;4080;42.676;23.372;2023-01-25T11:08:35;96005.50;;;3.75;100.00
8075;BME280;4080;42.676;23.372;2023-01-25T11:11:22;95979.00;;;3.78;100.00
8075;BME280;4080;42.676;23.372;2023-01-25T11:13:50;95996.66;;;3.96;100.00
8075;BME280;4080;42.676;23.372;2023-01-25T11:16:29;96000.50;;;4.00;100.00
8075;BME280;4080;42.676;23.372;2023-01-25T11:18:57;96001.91;;;4.02;100.00
8075;BME280;4080;42.676;23.372;2023-01-25T11:21:27;95974.78;;;3.90;100.00
8075;BME280;4080;42.676;23.372;2023-01-25T11:24:03;95974.38;;;3.93;100.00
8075;BME280;4080;42.676;23.372;2023-01-25T11:26:31;95991.25;;;4.04;100.00
8075;BME280;4080;42.676;23.372;2023-01-25T11:29:13;95961.31;;;3.93;100.00
8075;BME280;4080;42.676;23.372;2023-01-25T11:31:42;95975.78;;;3.96;100.00
8075;BME280;4080;42.676;23.372;2023-01-25T11:34:11;95967.75;;;3.91;100.00
8075;BME280;4080;42.676;23.372;2023-01-25T11:36:49;95979.38;;;3.95;100.00
8075;BME280;4080;42.676;23.372;2023-01-25T11:39:32;95987.44;;;3.93;100.00
8075;BME280;4080;42.676;23.372;2023-01-25T11:42:11;95983.63;;;3.89;100.00
8075;BME280;4080;42.676;23.372;2023-01-25T11:44:56;95963.16;;;3.86;100.00
8075;BME280;4080;42.676;23.372;2023-01-25T11:47:39;95952.91;;;3.85;100.00
8075;BME280;4080;42.676;23.372;2023-01-25T11:50:13;95949.69;;;3.89;100.00
8075;BME280;4080;42.676;23.372;2023-01-25T11:53:01;95944.44;;;3.96;100.00
8075;BME280;4080;42.676;23.372;2023-01-25T11:55:33;95934.22;;;4.01;100.00
8075;BME280;4080;42.676;23.372;2023-01-25T11:58:24;95902.69;;;3.89;100.00
8075;BME280;4080;42.676;23.372;2023-01-25T12:01:07;95946.84;;;4.11;100.00
8075;BME280;4080;42.676;23.372;2023-01-25T12:04:02;95937.63;;;4.08;100.00
8075;BME280;4080;42.676;23.372;2023-01-25T12:06:48;95939.25;;;4.02;100.00
8075;BME280;4080;42.676;23.372;2023-01-25T12:09:35;95926.00;;;3.84;100.00
8075;BME280;4080;42.676;23.372;2023-01-25T12:12:15;95937.63;;;3.88;100.00
8075;BME280;4080;42.676;23.372;2023-01-25T12:14:57;95932.00;;;3.91;100.00
8075;BME280;4080;42.676;23.372;2023-01-25T12:17:45;95919.38;;;3.88;100.00
8075;BME280;4080;42.676;23.372;2023-01-25T12:20:35;95927.59;;;3.85;100.00
8075;BME280;4080;42.676;23.372;2023-01-25T12:23:27;95919.59;;;3.80;100.00
8075;BME280;4080;42.676;23.372;2023-01-25T12:26:05;95923.81;;;3.74;100.00
8075;BME280;4080;42.676;23.372;2023-01-25T12:28:39;95922.00;;;3.82;100.00
8075;BME280;4080;42.676;23.372;2023-01-25T12:31:12;95910.56;;;3.83;100.00
8075;BME280;4080;42.676;23.372;2023-01-25T12:33:44;95913.56;;;3.80;100.00
8075;BME280;4080;42.676;23.372;2023-01-25T12:36:15;95917.19;;;3.79;100.00
8075;BME280;4080;42.676;23.372;2023-01-25T12:38:49;95893.09;;;3.77;100.00
8075;BME280;4080;42.676;23.372;2023-01-25T12:41:27;95897.31;;;3.71;100.00
8075;BME280;4080;42.676;23.372;2023-01-25T12:44:02;95904.13;;;3.79;100.00
8075;BME280;4080;42.676;23.372;2023-01-25T12:46:37;95907.97;;;3.76;100.00
8075;BME280;4080;42.676;23.372;2023-01-25T12:49:14;95913.78;;;3.78;100.00
8075;BME280;4080;42.676;23.372;2023-01-25T12:51:44;95901.72;;;3.77;100.00
8075;BME280;4080;42.676;23.372;2023-01-25T12:54:17;95906.75;;;3.65;100.00
8075;BME280;4080;42.676;23.372;2023-01-25T12:56:56;95903.56;;;3.70;100.00
8075;BME280;4080;42.676;23.372;2023-01-25T12:59:32;95901.94;;;3.76;100.00
8075;BME280;4080;42.676;23.372;2023-01-25T13:02:12;95899.72;;;3.66;100.00
8075;BME280;4080;42.676;23.372;2023-01-25T13:04:54;95872.66;;;3.47;100.00
8075;BME280;4080;42.676;23.372;2023-01-25T13:07:32;95890.72;;;3.49;100.00
8075;BME280;4080;42.676;23.372;2023-01-25T13:10:05;95888.91;;;3.56;100.00
8075;BME280;4080;42.676;23.372;2023-01-25T13:12:53;95843.16;;;3.27;100.00
8075;BME280;4080;42.676;23.372;2023-01-25T13:15:40;95865.03;;;3.46;100.00
8075;BME280;4080;42.676;23.372;2023-01-25T13:18:35;95879.47;;;3.55;100.00
8075;BME280;4080;42.676;23.372;2023-01-25T13:21:04;95862.25;;;3.40;100.00
8075;BME280;4080;42.676;23.372;2023-01-25T13:23:34;95876.84;;;3.55;100.00
8075;BME280;4080;42.676;23.372;2023-01-25T13:26:36;95872.25;;;3.50;100.00